createdAt,value
2022-09-06T00:01:15.593Z,101525.41
2022-09-06T00:03:42.068Z,101530.09
2022-09-06T00:06:14.605Z,101529.97
2022-09-06T00:08:41.294Z,101529.78
2022-09-06T00:11:07.818Z,101540.75
2022-09-06T00:13:34.531Z,101522.19
2022-09-06T00:16:09.145Z,101519.81
2022-09-06T00:18:35.822Z,101526.34
2022-09-06T00:21:03.253Z,101528.50
2022-09-06T00:23:29.777Z,101527.50
2022-09-06T00:26:03.366Z,101518.03
2022-09-06T00:28:29.746Z,101525.59
2022-09-06T00:30:55.965Z,101525.72
2022-09-06T00:33:22.493Z,101512.13
2022-09-06T00:35:49.470Z,101515.97
2022-09-06T00:38:19.303Z,101511.19
2022-09-06T00:40:47.348Z,101510.81
2022-09-06T00:43:13.967Z,101517.66
2022-09-06T00:45:40.992Z,101508.34
2022-09-06T00:48:07.485Z,101515.19
2022-09-06T00:50:34.257Z,101520.91
2022-09-06T00:53:01.074Z,101523.00
2022-09-06T00:55:35.079Z,101522.59
2022-09-06T00:58:01.684Z,101517.53
2022-09-06T01:00:27.992Z,101511.44
2022-09-06T01:02:54.579Z,101518.00
2022-09-06T01:05:26.473Z,101512.94
2022-09-06T01:08:16.690Z,101517.75
2022-09-06T01:11:19.389Z,101516.19
2022-09-06T01:14:10.385Z,101515.50
2022-09-06T01:16:47.719Z,101505.75
2022-09-06T01:19:32.953Z,101511.13
2022-09-06T01:22:44.050Z,101509.97
2022-09-06T01:25:51.937Z,101505.69
2022-09-06T01:28:31.167Z,101502.53
2022-09-06T01:31:20.078Z,101507.78
2022-09-06T01:34:07.833Z,101506.75
2022-09-06T01:36:54.339Z,101506.06
2022-09-06T01:39:35.099Z,101512.75
2022-09-06T01:42:10.869Z,101513.38
2022-09-06T01:44:39.656Z,101522.03
2022-09-06T01:47:08.907Z,101516.13
2022-09-06T01:49:57.270Z,101520.09
2022-09-06T01:52:35.377Z,101519.56
2022-09-06T01:55:37.147Z,101519.88
2022-09-06T01:58:41.701Z,101520.28
2022-09-06T02:01:30.207Z,101526.00
2022-09-06T02:04:08.733Z,101517.22
2022-09-06T02:06:42.547Z,101526.41
2022-09-06T02:09:17.869Z,101527.72
2022-09-06T02:11:51.726Z,101527.16
2022-09-06T02:14:29.260Z,101526.03
2022-09-06T02:16:57.752Z,101526.31
2022-09-06T02:19:36.749Z,101520.94
2022-09-06T02:22:10.301Z,101530.31
2022-09-06T02:24:40.786Z,101521.81
2022-09-06T02:27:07.705Z,101526.22
2022-09-06T02:29:35.444Z,101522.84
2022-09-06T02:32:07.089Z,101509.53
2022-09-06T02:34:33.317Z,101517.88
2022-09-06T02:37:00.511Z,101520.75
2022-09-06T02:39:26.781Z,101516.34
2022-09-06T02:41:53.024Z,101515.06
2022-09-06T02:44:19.364Z,101501.59
2022-09-06T02:46:45.642Z,101500.78
2022-09-06T02:49:11.885Z,101490.16
2022-09-06T02:51:39.276Z,101493.00
2022-09-06T02:54:05.963Z,101500.66
2022-09-06T02:56:33.915Z,101493.72
2022-09-06T02:59:00.713Z,101489.06
2022-09-06T03:01:27.115Z,101491.34
2022-09-06T03:03:53.350Z,101490.78
2022-09-06T03:06:20.854Z,101495.75
2022-09-06T03:08:47.133Z,101487.13
2022-09-06T03:11:13.522Z,101489.13
2022-09-06T03:13:40.170Z,101489.28
2022-09-06T03:16:06.641Z,101496.47
2022-09-06T03:18:34.459Z,101494.81
2022-09-06T03:21:01.045Z,101496.78
2022-09-06T03:23:28.773Z,101480.69
2022-09-06T03:25:55.760Z,101478.13
2022-09-06T03:28:23.020Z,101476.41
2022-09-06T03:30:51.542Z,101483.06
2022-09-06T03:33:20.097Z,101483.78
2022-09-06T03:35:52.203Z,101477.00
2022-09-06T03:38:18.883Z,101477.00
2022-09-06T03:40:47.407Z,101476.31
2022-09-06T03:43:14.658Z,101471.06
2022-09-06T03:45:44.981Z,101475.19
2022-09-06T03:48:11.203Z,101475.56
2022-09-06T03:50:37.463Z,101477.69
2022-09-06T03:53:03.640Z,101467.34
2022-09-06T03:55:30.149Z,101468.03
2022-09-06T03:57:56.387Z,101462.91
2022-09-06T04:00:24.304Z,101471.84
2022-09-06T04:02:50.501Z,101477.78
2022-09-06T04:05:17.626Z,101472.41
2022-09-06T04:07:44.210Z,101461.78
2022-09-06T04:10:11.220Z,101465.47
2022-09-06T04:12:37.603Z,101461.09
2022-09-06T04:15:04.349Z,101461.22
2022-09-06T04:31:04.710Z,101468.47
2022-09-06T04:33:33.679Z,101473.84
2022-09-06T04:36:01.566Z,101464.75
2022-09-06T04:38:29.756Z,101466.47
2022-09-06T04:40:56.151Z,101468.28
2022-09-06T04:43:22.961Z,101475.38
2022-09-06T04:45:49.466Z,101471.53
2022-09-06T04:48:15.810Z,101476.63
2022-09-06T04:50:42.004Z,101468.56
2022-09-06T04:53:08.443Z,101478.44
2022-09-06T04:55:35.121Z,101466.63
2022-09-06T04:58:01.688Z,101470.16
2022-09-06T05:00:29.247Z,101460.13
2022-09-06T05:02:55.468Z,101455.56
2022-09-06T05:05:22.705Z,101455.31
2022-09-06T05:07:52.166Z,101445.72
2022-09-06T05:10:18.464Z,101445.31
2022-09-06T05:12:48.363Z,101440.94
2022-09-06T05:15:14.527Z,101446.91
2022-09-06T05:17:40.698Z,101441.00
2022-09-06T05:20:07.473Z,101444.28
2022-09-06T05:22:33.632Z,101442.72
2022-09-06T05:24:59.796Z,101447.25
2022-09-06T05:27:25.986Z,101444.28
2022-09-06T05:29:52.148Z,101446.66
2022-09-06T05:32:18.295Z,101441.28
2022-09-06T05:34:44.458Z,101447.34
2022-09-06T05:37:10.660Z,101443.34
2022-09-06T05:39:36.908Z,101449.16
2022-09-06T05:42:06.944Z,101442.47
2022-09-06T05:44:37.450Z,101445.44
2022-09-06T05:47:04.199Z,101445.94
2022-09-06T05:49:31.278Z,101444.69
2022-09-06T05:51:57.894Z,101434.28
2022-09-06T05:54:24.680Z,101440.38
2022-09-06T05:56:51.033Z,101444.44
2022-09-06T05:59:17.450Z,101444.69
2022-09-06T06:01:51.427Z,101444.09
2022-09-06T06:04:18.799Z,101442.63
2022-09-06T06:06:46.796Z,101439.34
2022-09-06T06:09:13.834Z,101439.41
2022-09-06T06:11:40.900Z,101425.50
2022-09-06T06:14:07.620Z,101424.88
2022-09-06T06:16:34.213Z,101427.84
2022-09-06T06:19:00.500Z,101428.91
2022-09-06T06:21:28.736Z,101425.44
2022-09-06T06:23:57.166Z,101426.34
2022-09-06T06:26:24.295Z,101418.94
2022-09-06T06:28:51.688Z,101427.41
2022-09-06T06:31:18.165Z,101421.94
2022-09-06T06:33:44.493Z,101423.97
2022-09-06T06:36:16.263Z,101416.81
2022-09-06T06:38:45.068Z,101408.63
2022-09-06T06:41:16.032Z,101402.25
2022-09-06T06:43:42.320Z,101404.53
2022-09-06T06:46:11.188Z,101407.94
2022-09-06T06:48:40.683Z,101401.06
2022-09-06T06:51:10.816Z,101401.25
2022-09-06T06:53:37.137Z,101400.47
2022-09-06T06:56:17.609Z,101399.53
2022-09-06T06:58:44.738Z,101395.31
2022-09-06T07:01:12.077Z,101395.50
2022-09-06T07:03:38.330Z,101390.47
2022-09-06T07:08:34.274Z,101392.53
2022-09-06T07:11:00.715Z,101398.44
2022-09-06T07:13:26.956Z,101407.03
2022-09-06T07:16:05.828Z,101405.34
2022-09-06T07:18:32.015Z,101404.84
2022-09-06T07:26:31.737Z,101405.47
2022-09-06T07:29:00.743Z,101405.13
2022-09-06T07:34:14.671Z,101416.06
2022-09-06T07:36:40.832Z,101413.31
2022-09-06T07:39:07.043Z,101413.41
2022-09-06T07:41:33.376Z,101411.41
2022-09-06T07:43:59.530Z,101402.47
2022-09-06T07:46:25.692Z,101407.34
2022-09-06T07:48:51.920Z,101408.00
2022-09-06T07:51:22.030Z,101407.72
2022-09-06T07:54:06.895Z,101401.59
2022-09-06T07:56:39.296Z,101408.56
2022-09-06T07:59:05.451Z,101409.06
2022-09-06T08:01:34.521Z,101406.13
2022-09-06T08:04:03.080Z,101399.13
2022-09-06T08:06:31.887Z,101407.81
2022-09-06T08:08:59.242Z,101402.31
2022-09-06T08:11:28.393Z,101407.19
2022-09-06T08:13:55.844Z,101404.16
2022-09-06T08:16:23.819Z,101397.28
2022-09-06T08:18:55.247Z,101393.22
2022-09-06T08:21:26.594Z,101403.28
2022-09-06T08:23:56.285Z,101386.75
2022-09-06T08:26:24.454Z,101379.22
2022-09-06T08:29:17.104Z,101385.75
2022-09-06T08:31:44.658Z,101385.09
2022-09-06T08:34:12.899Z,101383.69
2022-09-06T08:36:39.150Z,101386.22
2022-09-06T08:39:09.139Z,101384.06
2022-09-06T08:41:53.313Z,101380.59
2022-09-06T08:47:13.327Z,101374.97
2022-09-06T08:49:41.909Z,101380.84
2022-09-06T08:52:33.760Z,101377.97
2022-09-06T08:55:24.252Z,101370.28
2022-09-06T08:58:01.052Z,101377.34
2022-09-06T09:00:27.481Z,101375.22
2022-09-06T09:03:07.334Z,101368.13
2022-09-06T09:05:35.116Z,101370.41
2022-09-06T09:08:37.115Z,101370.03
2022-09-06T09:11:10.425Z,101372.31
2022-09-06T09:13:42.697Z,101367.34
2022-09-06T09:16:08.962Z,101351.53
2022-09-06T09:18:39.550Z,101355.34
2022-09-06T09:21:06.088Z,101351.47
2022-09-06T09:23:32.518Z,101342.13
2022-09-06T09:26:04.653Z,101350.03
2022-09-06T09:28:31.495Z,101348.47
2022-09-06T09:30:57.887Z,101343.56
2022-09-06T09:33:30.948Z,101345.63
2022-09-06T09:36:01.162Z,101343.06
2022-09-06T09:38:31.457Z,101336.88
2022-09-06T09:41:03.784Z,101346.81
2022-09-06T09:43:37.732Z,101337.56
2022-09-06T09:46:11.585Z,101328.94
2022-09-06T09:48:38.303Z,101326.09
2022-09-06T09:51:27.312Z,101319.84
2022-09-06T09:53:59.677Z,101323.69
2022-09-06T09:56:34.471Z,101314.53
2022-09-06T09:59:01.848Z,101316.59
2022-09-06T10:01:31.400Z,101308.22
2022-09-06T10:09:39.723Z,101286.78
2022-09-06T10:12:06.670Z,101293.28
2022-09-06T10:14:44.364Z,101294.56
2022-09-06T10:17:20.532Z,101292.94
2022-09-06T10:19:47.518Z,101286.84
2022-09-06T10:22:22.575Z,101293.09
2022-09-06T10:25:07.365Z,101286.00
2022-09-06T10:27:33.447Z,101283.09
2022-09-06T10:30:08.471Z,101270.53
2022-09-06T10:32:37.382Z,101272.19
2022-09-06T10:35:24.171Z,101273.47
2022-09-06T10:38:28.168Z,101278.88
2022-09-06T10:41:28.930Z,101274.69
2022-09-06T10:44:27.352Z,101271.94
2022-09-06T10:47:06.973Z,101267.50
2022-09-06T10:49:35.325Z,101264.81
2022-09-06T10:52:05.186Z,101260.78
2022-09-06T10:54:39.567Z,101258.06
2022-09-06T11:00:23.320Z,101251.81
2022-09-06T11:06:04.486Z,101246.97
2022-09-06T11:08:47.869Z,101247.41
2022-09-06T11:11:20.852Z,101242.59
2022-09-06T11:13:47.451Z,101250.72
2022-09-06T11:16:28.046Z,101249.97
2022-09-06T11:19:08.101Z,101237.31
2022-09-06T11:21:52.548Z,101227.84
2022-09-06T11:24:34.281Z,101230.88
2022-09-06T11:27:35.100Z,101228.31
2022-09-06T11:30:03.113Z,101224.41
2022-09-06T11:32:34.354Z,101222.03
2022-09-06T11:35:05.716Z,101225.59
2022-09-06T11:37:35.457Z,101217.09
2022-09-06T11:40:28.737Z,101221.16
2022-09-06T11:42:55.301Z,101204.91
2022-09-06T11:45:51.807Z,101222.63
2022-09-06T11:48:24.070Z,101217.16
2022-09-06T11:50:59.221Z,101225.50
2022-09-06T11:53:31.130Z,101221.38
2022-09-06T11:56:00.012Z,101220.66
2022-09-06T11:58:41.346Z,101215.88
2022-09-06T12:01:13.351Z,101209.72
2022-09-06T12:04:05.211Z,101201.31
2022-09-06T12:06:42.914Z,101202.72
2022-09-06T12:09:28.995Z,101198.97
2022-09-06T12:11:56.750Z,101197.41
2022-09-06T12:14:32.540Z,101195.41
2022-09-06T12:16:58.642Z,101199.91
2022-09-06T12:19:44.731Z,101196.72
2022-09-06T12:22:29.517Z,101187.44
2022-09-06T12:24:57.297Z,101188.88
2022-09-06T12:27:26.948Z,101188.44
2022-09-06T12:30:01.945Z,101185.53
2022-09-06T12:32:40.198Z,101185.28
2022-09-06T12:38:07.001Z,101188.00
2022-09-06T12:40:41.068Z,101171.53
2022-09-06T12:43:10.695Z,101173.09
2022-09-06T12:45:42.903Z,101170.44
2022-09-06T12:48:12.082Z,101174.31
2022-09-06T12:50:39.033Z,101171.78
2022-09-06T12:53:25.596Z,101172.00
2022-09-06T12:56:04.505Z,101165.09
2022-09-06T12:58:30.863Z,101171.56
2022-09-06T13:01:04.208Z,101164.03
2022-09-06T13:03:45.765Z,101160.19
2022-09-06T13:06:26.218Z,101169.59
2022-09-06T13:08:56.076Z,101157.03
2022-09-06T13:11:35.744Z,101147.69
2022-09-06T13:14:13.850Z,101145.28
2022-09-06T13:16:47.376Z,101145.91
2022-09-06T13:19:19.014Z,101144.13
2022-09-06T13:21:47.080Z,101146.00
2022-09-06T13:24:28.351Z,101141.56
2022-09-06T13:26:54.732Z,101143.13
2022-09-06T13:29:29.024Z,101134.94
2022-09-06T13:31:57.181Z,101135.94
2022-09-06T13:34:32.297Z,101143.63
2022-09-06T13:37:05.352Z,101140.63
2022-09-06T13:39:39.680Z,101138.44
2022-09-06T13:42:08.308Z,101133.28
2022-09-06T13:44:39.634Z,101127.84
2022-09-06T13:47:06.398Z,101122.63
2022-09-06T13:49:33.147Z,101119.66
2022-09-06T13:52:02.106Z,101118.81
2022-09-06T13:54:31.684Z,101120.47
2022-09-06T13:56:58.006Z,101117.19
2022-09-06T13:59:25.310Z,101113.50
2022-09-06T14:02:01.434Z,101112.56
2022-09-06T14:04:28.015Z,101112.13
2022-09-06T14:06:54.360Z,101114.28
2022-09-06T14:09:20.892Z,101107.50
2022-09-06T14:11:48.352Z,101117.09
2022-09-06T14:14:14.939Z,101117.31
2022-09-06T14:16:41.109Z,101111.88
2022-09-06T14:19:07.269Z,101106.03
2022-09-06T14:21:33.462Z,101109.56
2022-09-06T14:24:04.333Z,101112.13
2022-09-06T14:26:30.972Z,101110.78
2022-09-06T14:28:57.223Z,101108.25
2022-09-06T14:31:26.759Z,101109.94
2022-09-06T14:33:54.433Z,101111.53
2022-09-06T14:36:23.014Z,101116.28
2022-09-06T14:38:49.845Z,101111.19
2022-09-06T14:41:18.543Z,101108.44
2022-09-06T14:43:48.474Z,101102.81
2022-09-06T14:46:15.479Z,101106.78
2022-09-06T14:48:42.784Z,101109.03
2022-09-06T14:51:12.218Z,101110.59
2022-09-06T14:53:43.570Z,101112.34
2022-09-06T14:56:11.373Z,101116.28
2022-09-06T14:58:38.507Z,101112.47
2022-09-06T15:01:16.190Z,101107.38
2022-09-06T15:03:46.860Z,101112.13
2022-09-06T15:06:13.135Z,101108.44
2022-09-06T15:08:39.333Z,101103.69
2022-09-06T15:11:08.191Z,101101.91
2022-09-06T15:13:36.432Z,101104.88
2022-09-06T15:16:02.982Z,101105.06
2022-09-06T15:18:29.760Z,101096.00
2022-09-06T15:20:55.938Z,101100.38
2022-09-06T15:23:25.126Z,101100.38
2022-09-06T15:25:52.437Z,101100.38
2022-09-06T15:28:19.500Z,101095.94
2022-09-06T15:30:46.821Z,101100.69
2022-09-06T15:33:15.069Z,101095.13
2022-09-06T15:35:43.064Z,101086.53
2022-09-06T15:38:12.912Z,101088.50
2022-09-06T15:40:39.224Z,101090.50
2022-09-06T15:43:05.510Z,101086.53
2022-09-06T15:45:45.770Z,101082.03
2022-09-06T15:48:11.992Z,101079.25
2022-09-06T15:50:51.149Z,101077.75
2022-09-06T15:53:17.933Z,101074.38
2022-09-06T15:56:04.352Z,101075.09
2022-09-06T15:58:31.175Z,101080.84
2022-09-06T16:01:10.279Z,101083.16
2022-09-06T16:03:39.355Z,101075.56
2022-09-06T16:09:01.774Z,101081.97
2022-09-06T16:11:30.218Z,101084.91
2022-09-06T16:13:56.595Z,101074.19
2022-09-06T16:16:23.039Z,101073.09
2022-09-06T16:18:49.300Z,101076.03
2022-09-06T16:21:21.679Z,101073.94
2022-09-06T16:23:59.421Z,101079.25
2022-09-06T16:26:28.640Z,101073.19
2022-09-06T16:28:54.948Z,101066.97
2022-09-06T16:31:22.264Z,101066.16
2022-09-06T16:33:49.260Z,101063.09
2022-09-06T16:36:17.036Z,101064.38
2022-09-06T16:38:43.405Z,101062.34
2022-09-06T16:41:22.035Z,101068.44
2022-09-06T16:43:55.138Z,101070.38
2022-09-06T16:46:25.010Z,101063.88
2022-09-06T16:48:56.362Z,101063.91
2022-09-06T16:51:24.735Z,101063.53
2022-09-06T16:53:52.122Z,101058.72
2022-09-06T16:56:21.379Z,101060.88
2022-09-06T16:58:53.168Z,101061.91
2022-09-06T17:01:20.091Z,101063.38
2022-09-06T17:03:47.576Z,101059.41
2022-09-06T17:06:14.346Z,101064.03
2022-09-06T17:08:40.552Z,101061.31
2022-09-06T17:11:12.085Z,101053.50
2022-09-06T17:13:38.506Z,101039.06
2022-09-06T17:16:24.191Z,101050.16
2022-09-06T17:18:53.756Z,101049.78
2022-09-06T17:21:24.694Z,101053.34
2022-09-06T17:23:52.197Z,101052.91
2022-09-06T17:26:21.316Z,101051.06
2022-09-06T17:28:50.482Z,101056.06
2022-09-06T17:31:21.029Z,101048.97
2022-09-06T17:33:50.318Z,101049.56
2022-09-06T17:36:20.185Z,101046.84
2022-09-06T17:38:52.712Z,101051.19
2022-09-06T17:41:24.338Z,101054.50
2022-09-06T17:43:51.213Z,101047.75
2022-09-06T17:46:17.479Z,101052.56
2022-09-06T17:48:43.700Z,101059.03
2022-09-06T17:51:11.149Z,101070.47
2022-09-06T17:53:38.216Z,101066.69
2022-09-06T17:56:06.366Z,101069.56
2022-09-06T17:58:33.078Z,101057.41
2022-09-06T18:01:06.994Z,101065.50
2022-09-06T18:03:34.991Z,101061.47
2022-09-06T18:06:07.576Z,101063.91
2022-09-06T18:08:35.864Z,101060.91
2022-09-06T18:11:10.383Z,101068.75
2022-09-06T18:13:37.263Z,101070.13
2022-09-06T18:16:04.343Z,101070.47
2022-09-06T18:18:31.968Z,101064.13
2022-09-06T18:20:58.257Z,101075.59
2022-09-06T18:23:24.548Z,101064.22
2022-09-06T18:25:58.109Z,101071.28
2022-09-06T18:28:25.318Z,101064.56
2022-09-06T18:30:52.958Z,101073.25
2022-09-06T18:33:19.116Z,101070.28
2022-09-06T18:35:45.344Z,101074.78
2022-09-06T18:38:12.707Z,101073.84
2022-09-06T18:40:38.873Z,101069.63
2022-09-06T18:43:05.028Z,101070.34
2022-09-06T18:45:33.406Z,101074.47
2022-09-06T18:47:59.776Z,101082.34
2022-09-06T18:50:25.958Z,101081.06
2022-09-06T18:52:52.107Z,101077.59
2022-09-06T18:55:18.264Z,101078.91
2022-09-06T18:57:44.606Z,101080.72
2022-09-06T19:00:12.731Z,101085.03
2022-09-06T19:02:38.982Z,101084.91
2022-09-06T19:05:05.552Z,101081.13
2022-09-06T19:07:32.206Z,101078.28
2022-09-06T19:09:58.368Z,101083.38
2022-09-06T19:12:24.838Z,101080.41
2022-09-06T19:14:51.072Z,101080.31
2022-09-06T19:17:17.252Z,101072.94
2022-09-06T19:19:43.426Z,101069.97
2022-09-06T19:22:09.603Z,101073.84
2022-09-06T19:24:35.779Z,101073.84
2022-09-06T19:27:01.963Z,101080.66
2022-09-06T19:29:28.192Z,101081.88
2022-09-06T19:31:54.958Z,101083.09
2022-09-06T19:34:22.047Z,101085.59
2022-09-06T19:36:50.124Z,101077.47
2022-09-06T19:39:16.783Z,101075.66
2022-09-06T19:41:45.160Z,101077.78
2022-09-06T19:44:12.510Z,101066.59
2022-09-06T19:46:41.826Z,101066.03
2022-09-06T19:49:11.221Z,101064.63
2022-09-06T19:51:37.415Z,101058.41
2022-09-06T19:54:04.312Z,101070.88
2022-09-06T19:56:35.734Z,101061.38
2022-09-06T19:59:05.331Z,101065.59
2022-09-06T20:01:33.403Z,101063.88
2022-09-06T20:04:02.757Z,101063.34
2022-09-06T20:06:29.104Z,101061.47
2022-09-06T20:08:58.111Z,101066.06
2022-09-06T20:11:27.306Z,101062.50
2022-09-06T20:13:53.797Z,101066.06
2022-09-06T20:16:20.904Z,101054.38
2022-09-06T20:18:47.402Z,101053.34
2022-09-06T20:21:14.040Z,101056.06
2022-09-06T20:23:41.042Z,101060.66
2022-09-06T20:26:10.668Z,101054.38
2022-09-06T20:28:37.381Z,101052.72
2022-09-06T20:31:06.521Z,101054.59
2022-09-06T20:33:33.915Z,101068.94
2022-09-06T20:36:04.956Z,101058.94
2022-09-06T20:38:32.551Z,101052.72
2022-09-06T20:41:07.277Z,101053.53
2022-09-06T20:43:36.676Z,101052.72
2022-09-06T20:46:05.518Z,101047.13
2022-09-06T20:48:33.907Z,101041.69
2022-09-06T20:51:02.154Z,101032.72
2022-09-06T20:53:34.626Z,101027.13
2022-09-06T20:56:03.782Z,101026.13
2022-09-06T20:58:30.669Z,101035.91
2022-09-06T21:00:57.741Z,101030.31
2022-09-06T21:03:27.175Z,101029.94
2022-09-06T21:05:54.236Z,101028.94
2022-09-06T21:08:20.971Z,101029.94
2022-09-06T21:10:47.485Z,101023.66
2022-09-06T21:13:14.057Z,101020.31
2022-09-06T21:15:41.181Z,101017.44
2022-09-06T21:18:08.556Z,101021.66
2022-09-06T21:20:35.381Z,101008.13
2022-09-06T21:23:01.741Z,101010.81
2022-09-06T21:25:28.122Z,101014.19
2022-09-06T21:27:55.942Z,101013.34
2022-09-06T21:30:22.473Z,101012.13
2022-09-06T21:32:49.007Z,100999.63
2022-09-06T21:35:15.168Z,100998.41
2022-09-06T21:37:41.350Z,100994.03
2022-09-06T21:40:08.070Z,100996.75
2022-09-06T21:42:34.315Z,100998.59
2022-09-06T21:45:00.489Z,100999.44
2022-09-06T21:47:26.653Z,101014.00
2022-09-06T21:49:52.955Z,101004.22
2022-09-06T21:52:19.157Z,101002.69
2022-09-06T21:54:45.320Z,100997.47
2022-09-06T21:57:11.807Z,100992.25
2022-09-06T21:59:37.973Z,100990.22
2022-09-06T22:02:04.170Z,100988.66
2022-09-06T22:04:30.425Z,100983.25
2022-09-06T22:06:56.570Z,100978.91
2022-09-06T22:09:22.723Z,100988.25
2022-09-06T22:11:48.872Z,100991.97
2022-09-06T22:14:15.470Z,100986.94
2022-09-06T22:16:42.065Z,100980.84
2022-09-06T22:19:09.630Z,100974.78
2022-09-06T22:21:36.247Z,100969.59
2022-09-06T22:24:05.589Z,100971.81
2022-09-06T22:26:33.665Z,100964.53
2022-09-06T22:29:01.896Z,100965.75
2022-09-06T22:31:29.922Z,100964.91
2022-09-06T22:33:56.714Z,100954.47
2022-09-06T22:36:24.032Z,100961.75
2022-09-06T22:38:53.270Z,100956.72
2022-09-06T22:41:19.543Z,100962.94
2022-09-06T22:43:45.711Z,100944.22
2022-09-06T22:46:12.925Z,100948.41
2022-09-06T22:48:39.184Z,100945.06
2022-09-06T22:51:06.340Z,100946.72
2022-09-06T22:53:33.597Z,100934.25
2022-09-06T22:55:59.802Z,100937.13
2022-09-06T22:58:29.104Z,100937.97
2022-09-06T23:00:56.086Z,100937.31
2022-09-06T23:03:22.795Z,100939.00
2022-09-06T23:05:49.419Z,100937.50
2022-09-06T23:08:16.052Z,100932.47
2022-09-06T23:10:43.508Z,100923.53
2022-09-06T23:13:10.929Z,100916.63
2022-09-06T23:15:38.557Z,100915.97
2022-09-06T23:18:04.759Z,100916.13
2022-09-06T23:20:31.676Z,100907.19
2022-09-06T23:22:57.838Z,100900.31
2022-09-06T23:25:24.073Z,100905.25
2022-09-06T23:27:50.231Z,100912.53
2022-09-06T23:30:16.419Z,100917.47
2022-09-06T23:32:42.560Z,100926.34
2022-09-06T23:35:08.872Z,100927.91
2022-09-06T23:37:35.021Z,100926.63
2022-09-06T23:40:02.991Z,100928.66
2022-09-06T23:42:30.872Z,100931.91
2022-09-06T23:44:59.110Z,100928.38
2022-09-06T23:47:25.382Z,100920.63
2022-09-06T23:49:51.698Z,100914.56
2022-09-06T23:52:18.089Z,100919.53
2022-09-06T23:54:44.583Z,100925.09
2022-09-06T23:57:10.742Z,100925.47
2022-09-06T23:59:36.889Z,100923.31
